Time;durP1;ratioP1;P1;durP2;ratioP2;P2;SDS_P1;SDS_P2;PMS_P1;PMS_P2;Temp;Humidity;BMP_temperature;BMP_pressure;BME280_temperature;BME280_humidity;BME280_pressure;Samples;Min_cycle;Max_cycle;Signal;HPM_P1;HPM_P2
2021/12/17 00:05:44;;;;;;;174.32;43.90;;;;;;;10.79;69.22;104104.09;5099452;28;20499;-43
2021/12/17 00:08:17;;;;;;;163.68;43.95;;;;;;;10.79;69.12;104099.69;5130597;28;20420;-42
2021/12/17 00:10:52;;;;;;;161.10;43.00;;;;;;;10.76;69.17;104098.97;5129204;28;20428;-42
2021/12/17 00:13:24;;;;;;;168.07;44.38;;;;;;;10.62;69.59;104102.22;5128545;28;20423;-48
2021/12/17 00:15:57;;;;;;;157.43;43.53;;;;;;;10.63;69.51;104108.41;5126714;28;20993;-42
2021/12/17 00:18:39;;;;;;;147.77;42.05;;;;;;;10.61;69.46;104114.59;5126023;28;20511;-42
2021/12/17 00:44:17;;;;;;;169.07;42.40;;;;;;;10.68;69.22;104101.09;5126189;28;20531;-43
2021/12/17 00:49:47;;;;;;;176.52;42.33;;;;;;;10.72;69.19;104092.97;5127770;28;20456;-43
2021/12/17 00:52:38;;;;;;;205.50;47.10;;;;;;;10.74;69.10;104090.25;5147858;23;20481;-43
2021/12/17 00:55:11;;;;;;;182.00;45.10;;;;;;;10.69;69.15;104079.91;5184661;28;20423;-43
2021/12/17 00:57:45;;;;;;;181.00;45.20;;;;;;;10.79;69.07;104090.88;5187164;28;20415;-44
2021/12/17 01:00:22;;;;;;;180.18;46.25;;;;;;;10.73;68.98;104083.25;5184971;28;21027;-43
2021/12/17 01:02:54;;;;;;;201.50;47.00;;;;;;;10.78;68.99;104097.13;5187855;28;20895;-43
2021/12/17 01:05:30;;;;;;;183.98;44.15;;;;;;;10.78;68.98;104099.75;5188171;28;20426;-43
2021/12/17 01:08:06;;;;;;;184.50;45.33;;;;;;;10.74;69.09;104085.81;5185414;28;20506;-43
2021/12/17 01:10:44;;;;;;;185.50;46.35;;;;;;;10.77;69.09;104090.09;5188316;28;20870;-43
2021/12/17 01:13:17;;;;;;;186.48;45.20;;;;;;;10.78;68.89;104086.53;5188126;28;20838;-43
2021/12/17 01:15:51;;;;;;;186.23;46.40;;;;;;;10.79;69.00;104090.88;5184769;28;20498;-44
2021/12/17 01:18:42;;;;;;;201.47;45.93;;;;;;;10.81;68.94;104094.34;5186465;28;20776;-47
2021/12/17 01:21:30;;;;;;;223.53;50.50;;;;;;;10.82;69.01;104096.03;5185494;28;20464;-44
2021/12/17 01:24:30;;;;;;;231.85;50.25;;;;;;;10.81;69.00;104096.97;5184413;28;20415;-43
2021/12/17 01:35:32;;;;;;;257.77;52.33;;;;;;;10.75;69.07;104119.25;5181309;28;20406;-45
2021/12/17 01:41:31;;;;;;;302.17;54.80;;;;;;;10.78;69.01;104118.28;5186698;28;20453;-43
2021/12/17 01:44:07;;;;;;;261.55;52.22;;;;;;;10.80;68.88;104121.69;5177496;28;20402;-46
2021/12/17 01:46:41;;;;;;;255.77;52.75;;;;;;;10.79;68.91;104131.41;5183774;28;20931;-44
2021/12/17 01:49:27;;;;;;;239.85;50.92;;;;;;;10.78;68.91;104119.13;5188087;28;20796;-44
2021/12/17 02:00:39;;;;;;;228.73;46.78;;;;;;;10.52;69.07;104133.50;5184817;28;20419;-42
2021/12/17 02:03:12;;;;;;;223.65;45.58;;;;;;;10.57;69.24;104142.09;5187710;28;20416;-43
2021/12/17 02:05:45;;;;;;;217.85;47.53;;;;;;;10.59;69.14;104145.53;5188345;28;20415;-43
2021/12/17 02:08:18;;;;;;;210.95;44.35;;;;;;;10.60;69.11;104141.09;5184655;28;21009;-42
2021/12/17 02:23:06;;;;;;;149.75;34.17;;;;;;;10.29;69.62;104149.53;5177388;28;20498;-43
2021/12/17 02:31:23;;;;;;;133.90;30.30;;;;;;;10.41;69.17;104133.16;5180835;28;20406;-49
2021/12/17 02:34:02;;;;;;;132.35;30.92;;;;;;;10.37;69.24;104128.91;5185187;28;20414;-43
2021/12/17 02:36:36;;;;;;;127.68;29.92;;;;;;;10.41;69.18;104138.44;5180277;28;20892;-42
2021/12/17 02:39:31;;;;;;;124.65;29.63;;;;;;;10.42;68.97;104134.84;5187075;28;20431;-44
2021/12/17 02:42:38;;;;;;;137.13;31.45;;;;;;;10.42;69.20;104136.63;5181232;28;24944;-45
2021/12/17 02:48:10;;;;;;;126.70;29.90;;;;;;;10.26;69.49;104136.44;5163357;28;20410;-44
2021/12/17 02:50:47;;;;;;;143.98;30.17;;;;;;;10.21;69.61;104127.84;5186679;28;20419;-42
2021/12/17 02:53:21;;;;;;;156.05;33.65;;;;;;;10.20;69.61;104126.13;5186485;28;20953;-42
2021/12/17 02:55:59;;;;;;;134.73;30.65;;;;;;;10.26;69.34;104121.47;5185557;28;20431;-43
2021/12/17 02:58:35;;;;;;;114.68;26.75;;;;;;;10.28;69.34;104118.72;5179302;28;20461;-43
2021/12/17 03:01:11;;;;;;;126.57;29.23;;;;;;;10.29;69.25;104116.03;5184686;28;20447;-42
2021/12/17 03:03:49;;;;;;;118.10;29.42;;;;;;;10.33;69.25;104112.34;5184434;28;20447;-43
2021/12/17 03:06:22;;;;;;;112.97;25.38;;;;;;;10.30;69.16;104106.31;5185458;28;20848;-45
2021/12/17 03:08:54;;;;;;;105.68;26.33;;;;;;;10.29;69.29;104107.25;5182862;28;20423;-43
2021/12/17 03:11:28;;;;;;;110.68;25.75;;;;;;;10.24;69.37;104111.84;5184417;28;20501;-46
2021/12/17 03:14:00;;;;;;;114.50;26.45;;;;;;;10.13;69.39;104099.97;5182162;28;20418;-49
2021/12/17 03:16:37;;;;;;;112.25;26.42;;;;;;;10.21;69.38;104106.69;5185842;28;20480;-44
2021/12/17 03:19:22;;;;;;;115.30;26.50;;;;;;;10.24;69.50;104101.28;5187797;28;20424;-45
2021/12/17 03:24:44;;;;;;;120.67;27.03;;;;;;;10.30;69.25;104101.03;5184763;28;20865;-42
2021/12/17 03:27:18;;;;;;;110.13;27.33;;;;;;;10.31;69.32;104102.75;5189686;28;20509;-45
2021/12/17 03:29:50;;;;;;;119.65;27.38;;;;;;;10.29;69.34;104096.69;5185726;28;20553;-44
2021/12/17 03:32:23;;;;;;;123.28;28.90;;;;;;;10.29;69.39;104104.63;5185761;28;20737;-44
2021/12/17 03:34:55;;;;;;;129.90;26.95;;;;;;;10.28;69.26;104097.59;5188801;28;20494;-45
2021/12/17 03:37:27;;;;;;;120.53;26.95;;;;;;;10.30;69.24;104101.03;5190222;28;20417;-43
2021/12/17 03:40:00;;;;;;;126.40;28.90;;;;;;;10.30;69.21;104104.53;5183648;28;20414;-46
2021/12/17 03:42:33;;;;;;;130.23;28.10;;;;;;;10.29;69.21;104094.06;5187624;28;20409;-42
2021/12/17 03:45:07;;;;;;;120.50;28.55;;;;;;;10.31;69.27;104108.03;5185415;28;20422;-43
2021/12/17 03:47:39;;;;;;;133.40;26.65;;;;;;;10.33;69.15;104103.56;5183986;28;20795;-43
2021/12/17 03:50:13;;;;;;;134.60;29.35;;;;;;;10.38;69.10;104101.56;5189717;28;20403;-44
2021/12/17 03:52:45;;;;;;;137.43;28.17;;;;;;;10.41;68.98;104092.66;5187140;28;20443;-42
2021/12/17 03:55:18;;;;;;;145.50;28.98;;;;;;;10.46;68.93;104102.06;5186989;28;20522;-42
2021/12/17 03:57:52;;;;;;;131.63;28.25;;;;;;;10.48;68.91;104102.00;5188239;28;20415;-42
2021/12/17 04:00:24;;;;;;;120.53;27.13;;;;;;;10.51;68.91;104105.38;5187699;28;20437;-43
2021/12/17 04:02:57;;;;;;;132.43;28.35;;;;;;;10.51;68.71;104102.72;5186584;28;20430;-43
2021/12/17 04:05:29;;;;;;;145.37;29.27;;;;;;;10.56;68.77;104102.50;5189659;28;20509;-43
2021/12/17 04:08:01;;;;;;;123.50;26.83;;;;;;;10.59;68.80;104105.91;5185826;28;20429;-43
2021/12/17 04:10:41;;;;;;;139.85;28.08;;;;;;;10.60;68.73;104104.97;5187267;28;20411;-43
2021/12/17 04:13:30;;;;;;;122.65;27.27;;;;;;;10.61;68.66;104106.66;5187947;28;20926;-42
2021/12/17 04:16:07;;;;;;;124.32;27.55;;;;;;;10.54;68.96;104097.31;5186585;28;20426;-43
2021/12/17 04:18:41;;;;;;;123.57;27.30;;;;;;;10.56;68.71;104102.50;5192298;28;20419;-42
2021/12/17 04:21:15;;;;;;;113.10;26.83;;;;;;;10.64;68.71;104110.97;5191250;28;20423;-43
2021/12/17 04:23:50;;;;;;;131.40;28.98;;;;;;;10.65;68.77;104117.09;5185070;28;20438;-44
2021/12/17 04:26:25;;;;;;;131.85;28.92;;;;;;;10.57;68.74;104094.53;5184409;28;20509;-43
2021/12/17 04:28:59;;;;;;;122.07;26.80;;;;;;;10.67;68.62;104107.31;5186885;28;20452;-44
2021/12/17 04:31:31;;;;;;;125.63;27.13;;;;;;;10.66;68.70;104103.81;5184330;28;20799;-45
2021/12/17 04:34:03;;;;;;;120.38;27.80;;;;;;;10.68;68.57;104101.09;5189179;28;20506;-44
2021/12/17 04:36:37;;;;;;;123.25;27.17;;;;;;;10.67;68.77;104108.16;5186832;28;20505;-44
2021/12/17 04:39:09;;;;;;;134.75;27.77;;;;;;;10.68;68.63;104101.09;5183890;28;20431;-43
2021/12/17 04:41:48;;;;;;;119.50;27.52;;;;;;;10.70;68.68;104096.59;5188790;28;20902;-43
2021/12/17 04:44:25;;;;;;;119.82;27.02;;;;;;;10.70;68.76;104101.91;5187109;28;20454;-44
2021/12/17 04:57:13;;;;;;;123.18;27.58;;;;;;;10.70;68.68;104088.69;5186943;28;21072;-44
2021/12/17 04:58:17;;;;;;;144.65;29.73;;;;;;;10.73;68.71;104093.81;5184635;28;20506;-43
2021/12/17 05:00:51;;;;;;;144.15;30.83;;;;;;;10.73;68.65;104105.25;5188149;28;20419;-44
2021/12/17 05:03:24;;;;;;;156.38;32.33;;;;;;;10.75;68.69;104103.41;5183671;28;20905;-43
2021/12/17 05:05:56;;;;;;;142.03;29.40;;;;;;;10.76;68.58;104098.97;5188387;28;20399;-44
2021/12/17 05:08:29;;;;;;;151.53;30.50;;;;;;;10.78;68.58;104097.13;5186244;28;20925;-43
2021/12/17 05:11:20;;;;;;;152.27;30.88;;;;;;;10.71;68.65;104085.09;5184285;28;20478;-44
2021/12/17 05:19:45;;;;;;;146.20;32.67;;;;;;;10.77;68.69;104112.09;5184456;28;20506;-43
2021/12/17 05:22:18;;;;;;;151.60;32.08;;;;;;;10.72;68.65;104107.97;5187150;28;20455;-44
2021/12/17 05:24:50;;;;;;;151.55;32.08;;;;;;;10.76;68.68;104106.91;5186406;28;20485;-44
2021/12/17 05:27:23;;;;;;;140.68;32.55;;;;;;;10.77;68.60;104105.97;5189059;28;20428;-43
2021/12/17 05:29:55;;;;;;;148.65;32.97;;;;;;;10.79;68.67;104104.97;5186971;28;20762;-43
2021/12/17 05:32:30;;;;;;;138.23;31.67;;;;;;;10.78;68.56;104102.41;5184670;28;20419;-47
2021/12/17 05:35:03;;;;;;;148.23;33.95;;;;;;;10.72;68.54;104086.81;5174263;28;20550;-43
2021/12/17 05:37:36;;;;;;;142.63;31.48;;;;;;;10.80;68.69;104104.03;5187905;28;20438;-43
2021/12/17 05:40:10;;;;;;;148.45;33.10;;;;;;;10.81;68.61;104104.91;5188658;28;20473;-42
2021/12/17 05:42:43;;;;;;;162.02;33.97;;;;;;;10.82;68.63;104103.97;5189771;28;20427;-42
2021/12/17 05:45:32;;;;;;;155.03;35.40;;;;;;;10.82;68.39;104117.19;5188698;28;20427;-42
2021/12/17 05:48:09;;;;;;;151.77;33.63;;;;;;;10.81;68.69;104112.84;5183601;28;20414;-43
2021/12/17 05:50:45;;;;;;;150.55;33.15;;;;;;;10.81;68.62;104118.13;5189158;28;20419;-45
2021/12/17 05:53:18;;;;;;;146.98;32.65;;;;;;;10.82;68.64;104117.19;5189393;28;20427;-44
2021/12/17 05:55:51;;;;;;;146.88;31.55;;;;;;;10.84;68.76;104123.28;5187765;28;20407;-43
2021/12/17 05:58:25;;;;;;;142.65;29.83;;;;;;;10.78;68.64;104113.84;5188063;28;20729;-44
2021/12/17 06:00:57;;;;;;;138.70;30.50;;;;;;;10.84;68.58;104118.00;5186636;28;20412;-44
2021/12/17 06:03:31;;;;;;;115.55;28.05;;;;;;;10.84;68.66;104124.13;5187076;28;20502;-43
2021/12/17 06:06:04;;;;;;;132.27;28.05;;;;;;;10.87;68.64;104116.97;5185153;28;20415;-42
2021/12/17 06:08:36;;;;;;;142.98;29.25;;;;;;;10.87;68.73;104117.84;5187569;28;20458;-43
2021/12/17 06:11:08;;;;;;;124.85;27.88;;;;;;;10.87;68.55;104120.50;5188381;28;20851;-44
2021/12/17 06:13:41;;;;;;;100.20;24.30;;;;;;;10.87;68.53;104131.06;5187276;28;20469;-44
2021/12/17 06:16:13;;;;;;;113.13;25.55;;;;;;;10.82;68.71;104131.25;5189154;28;20403;-43
2021/12/17 06:18:47;;;;;;;115.93;25.83;;;;;;;10.80;68.75;104132.25;5189466;28;20508;-45
2021/12/17 06:21:19;;;;;;;102.40;25.25;;;;;;;10.82;68.77;104133.06;5187085;28;20495;-43
2021/12/17 06:23:51;;;;;;;109.00;25.75;;;;;;;10.81;68.64;104147.22;5183888;28;20416;-44
2021/12/17 06:26:24;;;;;;;112.22;26.83;;;;;;;10.82;68.61;104135.69;5191134;28;20413;-43
2021/12/17 06:28:56;;;;;;;98.05;24.30;;;;;;;10.85;68.74;104140.84;5191549;28;20477;-43
2021/12/17 06:31:28;;;;;;;114.07;25.45;;;;;;;10.85;68.74;104136.41;5188291;28;20415;-42
2021/12/17 06:34:02;;;;;;;98.65;23.40;;;;;;;10.88;68.62;104140.69;5184032;28;20759;-48
2021/12/17 06:36:34;;;;;;;84.33;22.10;;;;;;;10.90;68.62;104145.91;5188776;28;20404;-43
2021/12/17 06:39:06;;;;;;;85.53;22.13;;;;;;;10.90;68.59;104143.25;5186698;28;20407;-43
2021/12/17 06:41:39;;;;;;;82.72;21.33;;;;;;;10.89;68.56;104137.13;5185293;28;20737;-46
2021/12/17 06:47:58;;;;;;;69.45;18.77;;;;;;;10.82;68.91;104148.91;5179289;28;20422;-49
2021/12/17 06:59:20;;;;;;;71.97;21.98;;;;;;;10.76;68.85;104130.69;5183418;28;20414;-48
2021/12/17 07:10:35;;;;;;;62.58;19.95;;;;;;;10.61;69.27;104159.53;5181481;28;20452;-44
2021/12/17 07:21:42;;;;;;;63.58;20.40;;;;;;;10.51;69.46;104162.66;5186388;28;20520;-46
2021/12/17 07:32:52;;;;;;;66.35;22.50;;;;;;;10.22;69.54;104137.47;5183953;28;20913;-43
2021/12/17 07:35:47;;;;;;;75.22;23.40;;;;;;;10.45;69.56;104173.50;5185763;28;20419;-43
2021/12/17 07:38:39;;;;;;;72.28;22.85;;;;;;;10.49;69.44;104175.94;5185126;28;20536;-44
2021/12/17 07:41:13;;;;;;;70.43;21.30;;;;;;;10.49;69.58;104169.78;5178262;28;20407;-44
2021/12/17 07:43:53;;;;;;;73.05;23.38;;;;;;;10.51;69.45;104167.94;5188295;28;20891;-43
2021/12/17 07:46:26;;;;;;;80.30;25.50;;;;;;;10.52;69.41;104181.06;5183293;28;20418;-43
2021/12/17 07:48:58;;;;;;;80.50;25.65;;;;;;;10.52;69.46;104180.22;5187128;28;20430;-43
2021/12/17 07:51:31;;;;;;;77.45;24.35;;;;;;;10.51;69.40;104182.00;5183059;28;20430;-45
2021/12/17 07:54:03;;;;;;;82.40;23.83;;;;;;;10.53;69.50;104182.81;5188338;28;21458;-42
2021/12/17 07:56:38;;;;;;;74.53;22.60;;;;;;;10.51;69.29;104179.38;5184967;28;20437;-43
2021/12/17 07:59:13;;;;;;;86.57;24.70;;;;;;;10.41;69.43;104170.13;5187693;28;20433;-42
2021/12/17 08:01:45;;;;;;;66.45;22.38;;;;;;;10.55;69.45;104183.59;5186733;28;20422;-44
2021/12/17 08:04:18;;;;;;;80.90;22.83;;;;;;;10.56;69.40;104187.09;5183752;28;20565;-47
2021/12/17 08:06:50;;;;;;;76.25;22.33;;;;;;;10.58;69.42;104186.09;5183940;28;25419;-45
2021/12/17 08:09:24;;;;;;;75.25;22.35;;;;;;;10.57;69.26;104168.53;5188424;28;20421;-43
2021/12/17 08:11:58;;;;;;;73.13;23.08;;;;;;;10.69;69.17;104179.50;5185725;28;20419;-45
2021/12/17 08:14:31;;;;;;;86.28;25.35;;;;;;;10.67;69.12;104168.13;5182671;28;20419;-47
2021/12/17 08:17:16;;;;;;;82.88;24.25;;;;;;;10.73;69.19;104173.97;5186052;28;20424;-43
2021/12/17 08:25:42;;;;;;;73.20;21.58;;;;;;;10.76;69.16;104162.41;5181138;28;20419;-44
2021/12/17 08:28:17;;;;;;;74.22;22.52;;;;;;;10.52;68.99;104122.09;5182069;28;20815;-42
2021/12/17 08:30:50;;;;;;;66.15;20.48;;;;;;;10.86;69.13;104179.56;5186051;28;20627;-45
2021/12/17 08:33:22;;;;;;;78.60;23.20;;;;;;;10.83;69.14;104180.56;5185993;28;20419;-41
2021/12/17 08:35:57;;;;;;;76.15;23.02;;;;;;;10.76;69.37;104178.28;5184441;28;20900;-42
2021/12/17 08:38:31;;;;;;;78.95;21.50;;;;;;;10.73;69.43;104186.34;5187792;28;20427;-46
2021/12/17 08:41:04;;;;;;;66.43;20.50;;;;;;;10.72;69.55;104179.34;5182422;28;20849;-43
2021/12/17 08:43:38;;;;;;;65.82;21.42;;;;;;;10.65;69.49;104197.25;5187800;28;20418;-42
2021/12/17 08:46:49;;;;;;;69.50;20.13;;;;;;;10.65;69.56;104196.41;5186051;28;20429;-42
2021/12/17 08:49:21;;;;;;;65.10;21.33;;;;;;;10.63;69.70;104195.63;5184305;28;20982;-41
2021/12/17 08:51:54;;;;;;;67.38;22.42;;;;;;;10.63;69.71;104200.91;5184269;28;20435;-42
2021/12/17 08:54:27;;;;;;;65.50;21.17;;;;;;;10.64;69.70;104194.69;5186189;28;20818;-43
2021/12/17 08:56:59;;;;;;;67.72;22.25;;;;;;;10.61;69.67;104201.81;5184551;28;20772;-42
2021/12/17 08:59:33;;;;;;;72.35;24.13;;;;;;;10.51;69.79;104199.66;5184744;28;20423;-46
2021/12/17 09:02:08;;;;;;;69.10;22.75;;;;;;;10.44;69.77;104192.94;5185471;28;20419;-44
2021/12/17 09:04:40;;;;;;;78.95;23.15;;;;;;;10.51;69.89;104204.94;5185716;28;20830;-43
2021/12/17 09:07:12;;;;;;;73.38;22.33;;;;;;;10.56;69.77;104195.00;5187637;28;20421;-44
2021/12/17 09:09:47;;;;;;;63.90;22.50;;;;;;;10.54;69.79;104189.81;5183718;28;20415;-44
2021/12/17 09:12:19;;;;;;;70.93;22.67;;;;;;;10.54;69.77;104200.38;5185461;28;20488;-44
2021/12/17 09:14:53;;;;;;;67.57;20.83;;;;;;;10.51;69.89;104194.38;5181692;28;20407;-47
2021/12/17 09:17:26;;;;;;;62.97;21.15;;;;;;;10.56;69.86;104203.81;5182127;28;20521;-43
2021/12/17 09:19:58;;;;;;;68.15;20.60;;;;;;;10.61;69.77;104200.97;5182320;28;20466;-44
2021/12/17 09:22:30;;;;;;;55.25;20.05;;;;;;;10.55;69.82;104207.38;5180215;28;20423;-46
2021/12/17 09:25:03;;;;;;;60.03;19.55;;;;;;;10.52;69.92;104207.50;5175854;28;20850;-43
2021/12/17 09:27:36;;;;;;;60.92;20.70;;;;;;;10.60;69.92;104204.53;5182619;28;20422;-43
2021/12/17 09:30:14;;;;;;;55.20;20.77;;;;;;;10.42;69.87;104163.06;5179259;28;20526;-42
2021/12/17 09:32:47;;;;;;;57.35;20.30;;;;;;;10.70;69.58;104208.50;5182731;28;20506;-43
2021/12/17 09:35:21;;;;;;;45.50;16.77;;;;;;;10.76;69.73;104210.00;5183659;28;20468;-43
2021/12/17 09:37:55;;;;;;;46.88;18.38;;;;;;;10.71;69.70;104215.47;5183326;28;21262;-43
2021/12/17 09:40:28;;;;;;;47.35;17.08;;;;;;;10.70;69.83;104215.56;5177489;28;20425;-44
2021/12/17 09:43:00;;;;;;;41.00;16.98;;;;;;;10.72;69.83;104214.56;5182465;28;20521;-45
2021/12/17 09:45:34;;;;;;;38.78;16.90;;;;;;;10.77;69.84;104225.78;5177394;28;20563;-47
2021/12/17 09:48:06;;;;;;;35.03;14.70;;;;;;;10.85;69.71;104226.31;5180018;28;20906;-43
2021/12/17 09:50:39;;;;;;;30.85;12.98;;;;;;;10.83;69.74;104235.22;5181469;28;20431;-43
2021/12/17 09:53:11;;;;;;;31.58;13.63;;;;;;;10.77;69.95;104238.16;5180499;28;20430;-43
2021/12/17 09:55:44;;;;;;;28.63;12.07;;;;;;;10.71;69.95;104244.56;5184462;28;20423;-45
2021/12/17 09:58:17;;;;;;;26.33;11.63;;;;;;;10.68;70.03;104251.78;5181567;28;20836;-45
2021/12/17 10:00:51;;;;;;;23.00;10.25;;;;;;;10.59;70.14;104253.91;5180100;28;21253;-44
2021/12/17 10:03:23;;;;;;;18.92;8.73;;;;;;;10.58;70.22;104254.81;5181255;28;20419;-45
2021/12/17 10:05:56;;;;;;;16.92;7.80;;;;;;;10.59;70.30;104251.25;5181903;28;20410;-43
2021/12/17 10:08:29;;;;;;;16.40;7.35;;;;;;;10.65;70.17;104262.47;5182638;28;20425;-45
2021/12/17 10:11:03;;;;;;;17.40;8.43;;;;;;;10.54;70.24;104274.38;5177876;28;20849;-47
2021/12/17 10:13:36;;;;;;;17.27;8.53;;;;;;;10.38;70.37;104241.59;5181240;28;20439;-43
2021/12/17 10:16:12;;;;;;;17.40;8.10;;;;;;;10.51;70.37;104258.66;5178821;28;20508;-42
2021/12/17 10:18:49;;;;;;;15.70;7.83;;;;;;;10.57;70.37;104260.19;5181118;28;20509;-44
2021/12/17 10:21:24;;;;;;;16.33;7.88;;;;;;;10.55;70.31;104262.88;5180515;28;20427;-45
2021/12/17 10:23:58;;;;;;;14.40;8.05;;;;;;;10.54;70.31;104263.81;5180276;28;20446;-45
2021/12/17 10:26:42;;;;;;;13.65;7.53;;;;;;;10.59;70.29;104267.13;5179784;28;20434;-44
2021/12/17 10:29:21;;;;;;;14.50;7.23;;;;;;;10.67;70.27;104252.72;5182241;28;20517;-43
2021/12/17 10:31:59;;;;;;;9.05;5.88;;;;;;;10.75;70.16;104255.88;5178760;28;20403;-43
2021/12/17 10:34:31;;;;;;;6.43;4.63;;;;;;;10.71;70.25;104251.63;5178744;28;20421;-48
2021/12/17 10:37:04;;;;;;;8.32;4.78;;;;;;;10.74;70.19;104244.44;5180634;28;20415;-43
2021/12/17 10:39:37;;;;;;;8.95;5.15;;;;;;;10.75;70.25;104245.31;5181070;28;20436;-43
2021/12/17 10:42:10;;;;;;;8.00;5.57;;;;;;;10.79;70.26;104241.59;5180188;28;20434;-43
2021/12/17 10:45:03;;;;;;;8.43;5.38;;;;;;;10.77;70.13;104241.66;5178705;28;20437;-44
2021/12/17 10:47:38;;;;;;;8.93;5.78;;;;;;;10.81;70.18;104245.03;5176905;28;20425;-44
2021/12/17 10:50:10;;;;;;;8.98;5.85;;;;;;;10.81;70.21;104242.41;5180465;28;20429;-47
2021/12/17 10:52:55;;;;;;;9.85;6.07;;;;;;;10.82;70.12;104244.09;5180795;28;20444;-45
2021/12/17 10:55:27;;;;;;;8.18;4.97;;;;;;;10.77;70.21;104243.44;5175246;28;20544;-44
2021/12/17 10:58:02;;;;;;;10.27;6.43;;;;;;;10.74;70.18;104235.63;5181112;28;20431;-44
2021/12/17 11:00:34;;;;;;;10.73;6.40;;;;;;;10.73;70.30;104231.28;5175771;28;20764;-43
2021/12/17 11:03:08;;;;;;;10.57;6.13;;;;;;;10.76;70.19;104231.16;5182146;28;20426;-43
2021/12/17 11:05:41;;;;;;;8.00;5.13;;;;;;;10.77;70.15;104222.28;5179543;28;20895;-43
2021/12/17 11:08:28;;;;;;;7.57;5.20;;;;;;;10.92;69.88;104226.88;5182750;28;20445;-43
2021/12/17 11:11:09;;;;;;;7.55;5.15;;;;;;;10.98;69.83;104228.41;5179832;28;20441;-42
2021/12/17 11:13:57;;;;;;;5.53;3.72;;;;;;;10.94;69.84;104225.06;5179823;28;20435;-42
2021/12/17 11:16:30;;;;;;;5.10;3.40;;;;;;;10.90;70.03;104228.78;5179759;28;20446;-45
2021/12/17 11:19:05;;;;;;;3.75;2.95;;;;;;;10.84;70.01;104231.69;5176179;28;21936;-47
2021/12/17 11:21:37;;;;;;;4.03;3.20;;;;;;;10.88;69.90;104235.91;5180373;28;20783;-46
2021/12/17 11:24:10;;;;;;;3.78;3.15;;;;;;;10.89;69.94;104239.41;5184722;28;20448;-43
2021/12/17 11:26:43;;;;;;;4.32;2.90;;;;;;;10.92;69.87;104232.19;5180568;28;20411;-43
2021/12/17 11:29:18;;;;;;;3.67;3.08;;;;;;;10.93;69.81;104230.38;5183591;28;20427;-42
2021/12/17 11:31:50;;;;;;;4.82;3.50;;;;;;;10.85;69.86;104221.03;5186332;28;20419;-44
2021/12/17 11:34:24;;;;;;;6.07;3.10;;;;;;;10.94;69.80;104227.69;5187719;28;20539;-44
2021/12/17 11:36:58;;;;;;;3.50;3.20;;;;;;;11.00;69.63;104230.06;5184732;28;20430;-42
2021/12/17 11:39:37;;;;;;;5.18;3.90;;;;;;;11.05;69.58;104233.34;5185370;28;20891;-43
2021/12/17 11:43:00;;;;;;;5.30;3.20;;;;;;;11.13;69.47;104229.50;5182822;28;20776;-42
2021/12/17 11:45:34;;;;;;;4.07;3.47;;;;;;;10.87;69.48;104202.47;5154489;28;20501;-42
2021/12/17 11:48:18;;;;;;;3.45;3.00;;;;;;;11.05;69.60;104232.47;5181091;28;20488;-45
2021/12/17 11:51:07;;;;;;;3.53;3.17;;;;;;;10.80;69.65;104207.13;5179070;28;20428;-43
2021/12/17 11:53:58;;;;;;;5.30;3.50;;;;;;;11.00;69.66;104240.63;5171532;28;20952;-43
2021/12/17 11:56:52;;;;;;;6.20;4.15;;;;;;;10.94;69.73;104248.00;5178240;28;20456;-43
2021/12/17 11:59:49;;;;;;;4.95;4.35;;;;;;;10.92;69.67;104242.75;5178841;28;20467;-44
2021/12/17 12:02:23;;;;;;;5.05;3.70;;;;;;;10.90;69.60;104228.78;5162680;28;20434;-45
2021/12/17 12:04:59;;;;;;;5.70;4.10;;;;;;;10.92;69.46;104232.19;5189197;28;20463;-44
2021/12/17 12:07:40;;;;;;;4.90;4.10;;;;;;;10.93;69.52;104227.75;5178752;28;20496;-44
2021/12/17 12:10:22;;;;;;;5.13;4.30;;;;;;;11.02;69.40;104240.56;5178849;28;20423;-44
2021/12/17 12:13:01;;;;;;;7.80;5.47;;;;;;;11.03;69.22;104234.34;5178747;28;20962;-42
2021/12/17 12:15:40;;;;;;;6.50;4.93;;;;;;;10.79;69.06;104194.00;5182177;28;20479;-44
2021/12/17 12:18:18;;;;;;;5.90;5.13;;;;;;;11.15;69.15;104240.84;5173872;28;20508;-43
2021/12/17 12:21:00;;;;;;;5.43;4.20;;;;;;;11.18;68.95;104235.41;5178727;28;20572;-42
2021/12/17 12:23:47;;;;;;;6.75;4.70;;;;;;;11.18;68.97;104236.31;5179888;28;20471;-45
2021/12/17 12:26:40;;;;;;;7.20;5.43;;;;;;;11.16;68.94;104239.94;5173603;28;20415;-44
2021/12/17 12:29:17;;;;;;;8.27;4.45;;;;;;;11.17;68.99;104241.66;5180062;28;20590;-45
2021/12/17 12:32:02;;;;;;;7.05;5.18;;;;;;;11.19;68.84;104240.66;5183288;28;20439;-44
2021/12/17 12:34:39;;;;;;;6.60;5.15;;;;;;;11.24;68.72;104238.66;5173217;28;20407;-43
2021/12/17 12:37:27;;;;;;;8.93;6.45;;;;;;;11.23;68.79;104251.94;5175125;28;20903;-44
2021/12/17 12:40:21;;;;;;;6.17;5.17;;;;;;;11.16;68.78;104234.66;5177802;28;20461;-43
2021/12/17 12:42:56;;;;;;;6.67;5.27;;;;;;;11.12;68.86;104227.75;5175979;28;20453;-44
2021/12/17 12:45:32;;;;;;;7.93;4.78;;;;;;;11.13;68.77;104233.00;5185733;28;20429;-44
2021/12/17 12:48:05;;;;;;;5.40;4.88;;;;;;;11.15;68.60;104224.97;5178115;28;20491;-44
2021/12/17 12:50:37;;;;;;;5.68;5.07;;;;;;;11.13;68.68;104224.22;5181760;28;20435;-45
2021/12/17 12:53:11;;;;;;;8.90;4.75;;;;;;;11.08;68.59;104230.53;5185498;28;20439;-44
2021/12/17 12:55:48;;;;;;;6.45;5.50;;;;;;;11.05;68.68;104222.75;5184329;28;20417;-47
2021/12/17 12:58:28;;;;;;;6.80;5.53;;;;;;;11.04;68.66;104223.69;5174171;28;20505;-44
2021/12/17 13:01:02;;;;;;;6.90;5.40;;;;;;;10.94;68.64;104214.47;5176679;28;20421;-44
2021/12/17 13:03:37;;;;;;;6.68;5.63;;;;;;;11.04;68.61;104215.75;5174943;28;20506;-45
2021/12/17 13:06:16;;;;;;;18.02;14.20;;;;;;;11.14;68.42;104225.91;5182548;28;20414;-43
2021/12/17 13:08:54;;;;;;;9.00;5.97;;;;;;;11.21;68.21;104232.63;5177793;28;20781;-43
2021/12/17 13:11:28;;;;;;;8.37;5.97;;;;;;;11.25;68.20;104224.50;5179408;28;20412;-46
2021/12/17 13:14:09;;;;;;;6.82;6.03;;;;;;;11.25;68.02;104218.34;5172011;28;20427;-45
2021/12/17 13:17:05;;;;;;;7.65;6.05;;;;;;;11.19;68.27;104223.94;5177610;28;20417;-43
2021/12/17 13:22:42;;;;;;;9.25;6.30;;;;;;;11.13;68.26;104225.06;5176346;28;20490;-43
2021/12/17 13:25:25;;;;;;;7.28;6.53;;;;;;;11.15;68.28;104223.22;5178767;28;20497;-43
2021/12/17 13:27:59;;;;;;;8.70;5.93;;;;;;;11.19;68.17;104218.63;5179836;28;20925;-44
2021/12/17 13:30:31;;;;;;;9.18;6.32;;;;;;;11.14;67.96;104199.47;5176257;28;20403;-40
2021/12/17 13:33:04;;;;;;;8.68;6.60;;;;;;;11.28;67.98;104220.84;5179478;28;20482;-44
2021/12/17 13:35:37;;;;;;;9.18;6.65;;;;;;;11.28;67.71;104212.91;5177319;28;20434;-44
2021/12/17 13:38:12;;;;;;;10.70;6.95;;;;;;;11.30;67.90;104216.34;5177078;28;20428;-44
2021/12/17 13:40:52;;;;;;;9.35;7.07;;;;;;;11.27;67.95;104211.19;5182651;28;20435;-44
2021/12/17 13:43:30;;;;;;;7.80;6.32;;;;;;;11.27;67.87;104220.00;5183772;28;20695;-43
2021/12/17 13:46:05;;;;;;;16.83;7.60;;;;;;;11.24;67.94;104216.63;5174663;28;20413;-47
2021/12/17 13:48:38;;;;;;;9.48;7.53;;;;;;;11.28;67.98;104218.22;5182454;28;20516;-43
2021/12/17 13:51:14;;;;;;;8.63;6.47;;;;;;;11.27;67.88;104216.47;5173660;28;20409;-44
2021/12/17 13:53:47;;;;;;;7.95;6.40;;;;;;;11.24;67.85;104211.31;5175717;28;20759;-43
2021/12/17 13:56:20;;;;;;;8.45;7.00;;;;;;;11.22;67.97;104213.19;5181361;28;20427;-43
2021/12/17 13:59:02;;;;;;;11.23;7.82;;;;;;;11.22;67.95;104216.69;5180919;28;20423;-43
2021/12/17 14:01:37;;;;;;;9.73;7.72;;;;;;;11.21;67.97;104215.00;5178032;28;20431;-45
2021/12/17 14:04:14;;;;;;;11.70;7.93;;;;;;;11.08;67.87;104204.09;5188547;28;20482;-44
2021/12/17 14:06:52;;;;;;;11.48;8.43;;;;;;;11.15;68.00;104209.09;5177738;28;20417;-44
2021/12/17 14:09:24;;;;;;;12.13;8.52;;;;;;;11.11;68.12;104218.13;5179446;28;20466;-44